Terminal Aerodrome Forecast
Issued by NWS

Home | Current Version | Previous Version | Graphics & Text | Print | Product List | Glossary Off
Versions: 1 2 3 4 5 6 7 8 9 10 11 12 13 14 15

000
FTUS45 KGGW 091738
TAFOLF
TAF
KOLF 091738Z 0918/1018 07005KT P6SM SCT009 BKN025
     FM100600 08008KT P6SM BKN015
     FM101300 08011KT P6SM VCSH SCT010 BKN015
     FM101500 07011KT 6SM -SN OVC015=

USA.gov is the U.S. government's official web portal to all federal, state and local government web resources and services.